Terminal Aerodrome Forecast
Issued by NWS

Home | Current Version | Previous Version | Text Only | Print | Product List | Glossary On
Versions: 1 2 3 4 5 6 7 8 9 10 11 12 13 14 15 16 17 18 19 20
644
FTUS42 KTBW 172340
TAFLAL
TAF
KLAL 172340Z 1800/1824 26012KT P6SM FEW050
     FM180400 VRB03KT P6SM FEW015 SCT080
     FM180700 VRB03KT 1/4SM FG BKN003
     FM181500 VRB03KT P6SM FEW010
     FM181600 20006KT P6SM FEW100 SCT250
      AMD NOT SKED 1803/1812=

USA.gov is the U.S. government's official web portal to all federal, state and local government web resources and services.